Time;durP1;ratioP1;P1;durP2;ratioP2;P2;SDS_P1;SDS_P2;PMS_P1;PMS_P2;Temp;Humidity;BMP_temperature;BMP_pressure;BME280_temperature;BME280_humidity;BME280_pressure;Samples;Min_cycle;Max_cycle;Signal;HPM_P1;HPM_P2
2023/03/15 00:02:14;;;;;;;9.32;2.42;;;;;;;2.89;100.00;100895.41;5024233;28;20034;-86
2023/03/15 00:04:40;;;;;;;12.15;2.42;;;;;;;2.77;100.00;100886.00;5017949;28;20481;-86
2023/03/15 00:07:06;;;;;;;9.02;2.13;;;;;;;2.88;100.00;100885.53;4994050;28;20030;-86
2023/03/15 00:09:31;;;;;;;4.32;1.50;;;;;;;2.91;100.00;100898.91;4984688;28;20061;-85
2023/03/15 00:11:56;;;;;;;4.15;1.50;;;;;;;2.85;100.00;100910.00;4989870;28;20026;-85
2023/03/15 00:14:22;;;;;;;5.95;1.35;;;;;;;2.83;100.00;100901.09;4991074;28;20105;-85
2023/03/15 00:16:47;;;;;;;9.45;1.55;;;;;;;2.74;100.00;100903.28;4983225;28;20056;-86
2023/03/15 00:19:15;;;;;;;4.65;1.77;;;;;;;2.94;100.00;100915.00;5016268;28;20433;-86
2023/03/15 00:21:42;;;;;;;5.85;1.23;;;;;;;2.84;100.00;100900.16;5016904;28;20040;-86
2023/03/15 00:24:09;;;;;;;5.25;1.38;;;;;;;2.82;100.00;100899.31;5003872;28;20481;-87
2023/03/15 00:26:34;;;;;;;3.38;1.10;;;;;;;2.91;100.00;100899.78;5002604;28;20038;-86
2023/03/15 00:29:00;;;;;;;3.65;1.20;;;;;;;3.02;100.00;100909.25;4986768;28;20064;-86
2023/03/15 00:31:25;;;;;;;3.95;1.10;;;;;;;2.95;100.00;100911.31;4991827;28;20038;-87
2023/03/15 00:33:55;;;;;;;3.20;1.20;;;;;;;2.87;100.00;100905.41;4958598;28;20035;-87
2023/03/15 00:36:23;;;;;;;2.78;0.90;;;;;;;2.97;100.00;100914.84;5017697;28;20113;-87
2023/03/15 00:38:52;;;;;;;3.60;1.20;;;;;;;2.92;100.00;100912.38;5003701;28;20030;-87
2023/03/15 00:41:19;;;;;;;3.63;1.20;;;;;;;2.90;100.00;100907.97;5003298;28;20053;-86
2023/03/15 00:43:46;;;;;;;3.65;1.20;;;;;;;3.08;100.00;100917.94;4989552;28;20046;-86
2023/03/15 00:46:12;;;;;;;4.50;1.25;;;;;;;3.10;100.00;100921.44;5005195;28;20049;-86
2023/03/15 00:48:38;;;;;;;2.65;1.13;;;;;;;3.05;100.00;100926.19;4991271;28;20533;-87
2023/03/15 00:51:12;;;;;;;2.05;1.02;;;;;;;3.11;100.00;100927.72;4990001;28;20034;-85
2023/03/15 00:53:40;;;;;;;4.95;1.35;;;;;;;3.00;100.00;100916.53;5002658;28;20488;-87
2023/03/15 00:56:09;;;;;;;5.65;1.27;;;;;;;3.10;100.00;100918.75;5013185;28;20022;-80
2023/03/15 00:58:35;;;;;;;5.43;1.38;;;;;;;3.23;100.00;100920.84;4998529;28;20034;-86
2023/03/15 01:01:08;;;;;;;7.13;1.33;;;;;;;3.06;100.00;100913.53;5017380;28;20065;-83
2023/03/15 01:03:34;;;;;;;3.53;1.15;;;;;;;3.11;100.00;100922.31;5033005;28;20037;-85
2023/03/15 01:06:05;;;;;;;4.53;1.27;;;;;;;3.16;100.00;100916.69;5017972;28;20034;-85
2023/03/15 01:08:31;;;;;;;5.07;1.02;;;;;;;3.08;100.00;100907.13;5011988;28;20030;-85
2023/03/15 01:11:02;;;;;;;3.85;1.25;;;;;;;3.00;100.00;100908.41;4982212;28;20031;-86
2023/03/15 01:13:27;;;;;;;10.80;1.60;;;;;;;3.03;100.00;100905.56;4999014;28;20077;-86
2023/03/15 01:15:53;;;;;;;7.88;1.38;;;;;;;3.02;100.00;100902.00;4998291;28;20046;-86
2023/03/15 01:18:18;;;;;;;5.68;1.52;;;;;;;3.09;100.00;100895.34;4985118;28;20429;-86
2023/03/15 01:20:44;;;;;;;5.00;1.63;;;;;;;3.11;100.00;100900.66;4999675;28;20042;-86
2023/03/15 01:23:09;;;;;;;3.85;1.67;;;;;;;3.08;100.00;100899.00;4984193;28;20034;-86
2023/03/15 01:25:35;;;;;;;7.25;2.00;;;;;;;3.13;100.00;100899.66;4982775;28;20042;-87
2023/03/15 01:28:00;;;;;;;7.78;2.33;;;;;;;3.11;100.00;100896.13;4999876;28;20054;-87
2023/03/15 01:30:26;;;;;;;5.45;2.92;;;;;;;3.09;100.00;100898.03;5014974;28;20038;-86
2023/03/15 01:32:51;;;;;;;10.00;3.67;;;;;;;3.10;100.00;100907.06;4980438;28;20440;-87
2023/03/15 01:35:16;;;;;;;10.50;3.22;;;;;;;3.13;100.00;100909.59;4977644;28;20410;-87
2023/03/15 01:37:42;;;;;;;7.57;4.18;;;;;;;3.08;100.00;100915.25;4997289;28;20381;-87
2023/03/15 01:40:12;;;;;;;8.80;4.20;;;;;;;3.21;100.00;100926.31;4967628;28;20035;-88
2023/03/15 01:42:51;;;;;;;12.00;5.03;;;;;;;3.30;100.00;100916.91;5016494;28;20038;-88
2023/03/15 01:45:54;;;;;;;9.68;5.75;;;;;;;3.36;100.00;100927.44;4982712;28;20030;-87
2023/03/15 01:48:23;;;;;;;14.00;5.53;;;;;;;3.41;100.00;100928.09;5008468;28;20047;-88
2023/03/15 01:50:49;;;;;;;11.10;5.57;;;;;;;3.28;100.00;100927.81;4984338;28;20030;-88
2023/03/15 01:53:16;;;;;;;19.17;6.93;;;;;;;3.23;100.00;100931.66;4970500;28;20038;-87
2023/03/15 01:55:42;;;;;;;15.55;7.00;;;;;;;3.18;100.00;100934.63;5002769;28;20351;-87
2023/03/15 01:58:09;;;;;;;20.75;7.80;;;;;;;3.10;100.00;100928.69;4992408;28;20038;-87
2023/03/15 02:00:35;;;;;;;21.88;8.20;;;;;;;3.22;100.00;100933.50;5006145;28;20034;-86
2023/03/15 02:03:17;;;;;;;9.63;6.68;;;;;;;3.02;100.00;100914.66;4989660;28;20038;-87
2023/03/15 02:05:47;;;;;;;10.63;6.90;;;;;;;3.18;100.00;100931.00;5006699;28;20086;-87
2023/03/15 02:08:15;;;;;;;13.43;6.25;;;;;;;3.15;100.00;100932.06;5017588;28;20081;-88
2023/03/15 02:10:44;;;;;;;9.70;7.45;;;;;;;3.17;100.00;100934.69;4999751;28;20482;-86
2023/03/15 02:13:14;;;;;;;12.15;7.05;;;;;;;3.03;100.00;100943.44;5023568;28;20030;-87
2023/03/15 02:15:45;;;;;;;15.07;6.82;;;;;;;3.01;100.00;100935.38;5006726;28;20034;-87
2023/03/15 02:18:12;;;;;;;11.43;7.75;;;;;;;2.91;100.00;100924.13;4973591;28;20061;-87
2023/03/15 02:20:56;;;;;;;15.00;8.32;;;;;;;3.12;100.00;100948.44;5007040;28;20098;-88
2023/03/15 02:23:23;;;;;;;16.35;7.53;;;;;;;3.02;100.00;100947.09;5018284;28;20050;-86
2023/03/15 02:25:57;;;;;;;12.57;7.75;;;;;;;3.08;100.00;100946.78;4991057;28;20045;-87
2023/03/15 02:28:24;;;;;;;13.93;7.63;;;;;;;2.91;100.00;100942.19;5027306;28;20068;-86
2023/03/15 02:30:49;;;;;;;11.88;7.13;;;;;;;2.99;100.00;100937.28;4990148;28;20141;-84
2023/03/15 02:33:18;;;;;;;9.77;7.38;;;;;;;3.10;100.00;100947.63;4973425;28;20062;-86
2023/03/15 02:48:41;;;;;;;10.63;7.55;;;;;;;2.98;100.00;100976.09;5050265;23;20085;-84
2023/03/15 02:51:15;;;;;;;14.75;8.52;;;;;;;3.04;100.00;100992.03;5012873;28;20101;-87
2023/03/15 02:53:40;;;;;;;12.43;6.55;;;;;;;2.90;100.00;100997.19;5015054;28;20018;-88
2023/03/15 02:56:06;;;;;;;8.52;6.15;;;;;;;2.95;100.00;100997.88;5014701;28;20048;-87
2023/03/15 02:58:31;;;;;;;8.23;5.80;;;;;;;2.87;100.00;100997.31;5016562;28;20037;-88
2023/03/15 03:11:18;;;;;;;14.75;9.25;;;;;;;2.98;100.00;101011.25;5914651;22;20061;-87
2023/03/15 03:13:43;;;;;;;21.92;11.52;;;;;;;2.83;100.00;101009.25;4979285;28;20034;-88
2023/03/15 03:16:10;;;;;;;15.15;9.90;;;;;;;2.76;100.00;101006.81;4980524;28;20113;-85
2023/03/15 03:18:36;;;;;;;16.17;10.85;;;;;;;2.91;100.00;101013.34;5012568;28;20045;-82
2023/03/15 03:21:06;;;;;;;19.55;11.18;;;;;;;2.93;100.00;101022.28;5876674;22;20025;-87
2023/03/15 03:23:34;;;;;;;16.77;11.60;;;;;;;2.91;100.00;101026.00;5060173;28;20048;-88
2023/03/15 03:26:00;;;;;;;17.05;11.63;;;;;;;2.92;100.00;101035.88;5045774;28;20085;-89
2023/03/15 03:28:28;;;;;;;19.52;10.68;;;;;;;2.92;100.00;101034.06;5039719;28;20064;-86
2023/03/15 03:30:54;;;;;;;17.80;12.57;;;;;;;3.00;100.00;101038.22;5035627;28;20091;-89
2023/03/15 03:33:21;;;;;;;19.50;11.57;;;;;;;2.92;100.00;101036.75;5006346;28;20176;-88
2023/03/15 03:35:47;;;;;;;15.93;10.98;;;;;;;2.81;100.00;101044.47;5039956;28;20033;-88
2023/03/15 03:38:13;;;;;;;19.00;12.77;;;;;;;2.92;100.00;101041.31;5057918;28;20031;-88
2023/03/15 03:40:39;;;;;;;15.85;11.43;;;;;;;2.84;100.00;101041.63;5018535;28;20025;-89
2023/03/15 03:43:05;;;;;;;16.52;10.85;;;;;;;2.78;100.00;101047.28;5034334;28;20033;-89
2023/03/15 03:45:31;;;;;;;18.38;11.95;;;;;;;2.78;100.00;101060.81;5036688;28;20036;-89
2023/03/15 03:47:56;;;;;;;17.65;11.63;;;;;;;2.88;100.00;101061.28;5040523;28;20044;-87
2023/03/15 03:50:22;;;;;;;19.20;11.38;;;;;;;2.85;100.00;101066.84;5008751;28;20622;-88
2023/03/15 03:52:47;;;;;;;15.10;11.05;;;;;;;2.76;100.00;101070.81;5004686;28;20091;-87
2023/03/15 03:55:13;;;;;;;18.35;11.98;;;;;;;2.80;100.00;101071.56;5010215;28;20035;-88
2023/03/15 03:57:40;;;;;;;18.35;11.50;;;;;;;2.71;100.00;101073.72;5058706;28;20037;-88
2023/03/15 04:00:08;;;;;;;14.30;9.80;;;;;;;2.73;100.00;101085.34;5041576;28;20025;-85
2023/03/15 04:02:33;;;;;;;21.25;11.52;;;;;;;2.76;100.00;101076.22;5058133;28;20037;-88
2023/03/15 04:04:59;;;;;;;20.05;11.38;;;;;;;2.68;100.00;101081.97;5053939;28;20064;-88
2023/03/15 04:07:25;;;;;;;16.50;10.88;;;;;;;2.63;100.00;101077.72;5057943;28;20472;-87
2023/03/15 04:09:50;;;;;;;16.40;10.35;;;;;;;2.63;100.00;101086.69;5014173;28;20037;-88
2023/03/15 04:12:16;;;;;;;20.45;10.98;;;;;;;2.61;100.00;101083.19;5040379;28;20064;-87
2023/03/15 04:14:41;;;;;;;17.20;10.93;;;;;;;2.61;100.00;101085.88;5024809;28;20033;-88
2023/03/15 04:17:07;;;;;;;21.67;11.50;;;;;;;2.53;100.00;101091.59;5037312;28;20484;-88
2023/03/15 04:19:33;;;;;;;18.83;11.85;;;;;;;2.51;100.00;101081.78;5025437;28;20036;-87
2023/03/15 04:22:05;;;;;;;18.00;10.70;;;;;;;2.58;100.00;101099.53;5042785;28;20041;-88
2023/03/15 04:24:33;;;;;;;17.20;10.85;;;;;;;2.49;100.00;101097.19;5042564;28;20032;-88
2023/03/15 04:26:58;;;;;;;15.88;10.43;;;;;;;2.41;100.00;101102.94;5052132;28;20035;-88
2023/03/15 04:29:24;;;;;;;17.08;10.45;;;;;;;2.29;100.00;101089.91;5029033;28;20127;-88
2023/03/15 04:31:49;;;;;;;17.83;10.15;;;;;;;2.38;100.00;101113.88;5027061;28;20043;-88
2023/03/15 04:34:15;;;;;;;16.70;10.05;;;;;;;2.32;100.00;101120.38;5027470;28;20053;-86
2023/03/15 04:36:41;;;;;;;17.90;11.13;;;;;;;2.18;100.00;101134.47;5028758;28;20052;-89
2023/03/15 04:39:08;;;;;;;16.75;10.70;;;;;;;2.31;100.00;101125.84;5001063;28;20518;-88
2023/03/15 04:41:34;;;;;;;21.08;11.27;;;;;;;2.34;100.00;101141.94;5060862;28;20063;-88
2023/03/15 04:44:04;;;;;;;19.38;10.07;;;;;;;2.19;100.00;101141.59;5009789;28;20071;-88
2023/03/15 04:46:31;;;;;;;19.08;10.48;;;;;;;2.16;100.00;101135.44;5025148;28;20028;-88
2023/03/15 04:48:57;;;;;;;18.73;11.05;;;;;;;2.20;100.00;101142.50;5042634;28;20061;-88
2023/03/15 04:51:23;;;;;;;16.58;10.55;;;;;;;2.26;100.00;101142.22;5027425;28;20049;-88
2023/03/15 04:53:49;;;;;;;18.27;10.02;;;;;;;1.98;100.00;101121.75;5025735;28;20033;-86
2023/03/15 04:56:14;;;;;;;19.55;10.65;;;;;;;2.05;100.00;101121.47;5017593;28;20037;-87
2023/03/15 04:58:40;;;;;;;20.33;11.05;;;;;;;2.06;100.00;101140.31;5005738;28;20044;-87
2023/03/15 05:01:05;;;;;;;17.42;10.35;;;;;;;2.14;100.00;101154.41;5028123;28;20381;-86
2023/03/15 05:03:30;;;;;;;19.15;10.52;;;;;;;2.04;100.00;101149.44;5007837;28;20037;-87
2023/03/15 05:05:56;;;;;;;19.52;9.75;;;;;;;1.86;100.00;101124.03;4988860;28;20067;-85
2023/03/15 05:08:21;;;;;;;21.08;10.48;;;;;;;1.81;100.00;101141.28;5009139;28;20166;-87
2023/03/15 05:10:47;;;;;;;23.73;9.70;;;;;;;2.04;100.00;101171.06;5014179;28;20033;-84
2023/03/15 05:13:12;;;;;;;17.27;10.13;;;;;;;1.96;100.00;101176.72;5022384;28;20056;-87
2023/03/15 05:15:38;;;;;;;17.35;9.85;;;;;;;2.06;100.00;101182.66;5010688;28;20057;-87
2023/03/15 05:18:03;;;;;;;17.20;9.75;;;;;;;1.80;100.00;101154.81;5040185;28;20041;-87
2023/03/15 05:20:29;;;;;;;16.63;9.23;;;;;;;1.96;100.00;101182.13;5042690;28;20040;-88
2023/03/15 05:22:55;;;;;;;20.75;9.82;;;;;;;1.96;100.00;101174.03;4993881;28;20056;-88
2023/03/15 05:25:20;;;;;;;18.05;9.63;;;;;;;1.82;100.00;101180.84;5023802;28;20093;-85
2023/03/15 05:27:46;;;;;;;17.35;9.75;;;;;;;1.91;100.00;101185.00;4991554;28;20029;-85
2023/03/15 05:30:13;;;;;;;17.08;10.05;;;;;;;1.75;100.00;101189.22;5040585;28;20543;-87
2023/03/15 05:32:43;;;;;;;19.52;10.40;;;;;;;1.81;100.00;101186.28;5010682;28;20033;-87
2023/03/15 05:35:10;;;;;;;23.20;10.38;;;;;;;1.79;100.00;101190.88;5029393;28;20040;-86
2023/03/15 05:37:35;;;;;;;16.95;9.90;;;;;;;1.78;100.00;101202.59;5020261;28;20091;-85
2023/03/15 05:40:01;;;;;;;18.35;9.77;;;;;;;1.70;100.00;101193.91;5025888;28;20045;-86
2023/03/15 05:42:28;;;;;;;22.98;10.35;;;;;;;1.68;100.00;101203.88;5020626;28;20048;-86
2023/03/15 05:44:54;;;;;;;23.20;10.88;;;;;;;1.73;100.00;101215.41;5024514;28;20029;-84
2023/03/15 05:47:20;;;;;;;22.60;10.50;;;;;;;1.57;100.00;101194.34;5034357;28;20033;-83
2023/03/15 05:49:45;;;;;;;21.05;11.02;;;;;;;1.58;100.00;101200.66;5059124;28;20029;-86
2023/03/15 05:52:11;;;;;;;21.33;10.52;;;;;;;1.54;100.00;101207.06;5051259;28;20515;-87
2023/03/15 05:54:36;;;;;;;16.80;9.80;;;;;;;1.49;100.00;101204.53;5054709;28;20384;-87
2023/03/15 05:57:02;;;;;;;20.75;11.40;;;;;;;1.37;100.00;101197.75;5020521;28;20040;-87
2023/03/15 05:59:27;;;;;;;24.92;11.23;;;;;;;1.36;100.00;101197.81;4986445;28;20128;-88
2023/03/15 06:01:53;;;;;;;21.42;11.73;;;;;;;1.28;100.00;101200.81;5034839;28;20480;-84
2023/03/15 06:04:18;;;;;;;20.30;11.63;;;;;;;1.53;100.00;101218.81;5038891;28;20033;-85
2023/03/15 06:06:44;;;;;;;24.52;12.93;;;;;;;1.50;100.00;101200.91;5040289;28;20545;-87
2023/03/15 06:09:09;;;;;;;22.45;11.45;;;;;;;1.44;100.00;101204.72;5049930;28;20029;-87
2023/03/15 06:11:35;;;;;;;22.77;11.73;;;;;;;1.56;100.00;101232.16;5024231;28;20031;-85
2023/03/15 06:14:00;;;;;;;23.45;12.13;;;;;;;1.39;100.00;101212.06;5051408;28;20037;-80
2023/03/15 06:16:29;;;;;;;21.33;11.77;;;;;;;1.62;100.00;101245.47;5058793;28;20124;-86
2023/03/15 06:18:54;;;;;;;27.95;13.05;;;;;;;1.67;100.00;101251.56;5056402;28;20139;-85
2023/03/15 06:21:20;;;;;;;24.67;12.50;;;;;;;1.50;100.00;101252.16;5017317;28;20049;-85
2023/03/15 06:23:45;;;;;;;26.27;13.27;;;;;;;1.45;100.00;101224.47;5031481;28;20029;-86
2023/03/15 06:26:13;;;;;;;29.52;13.38;;;;;;;1.61;100.00;101259.91;5032545;28;20029;-86
2023/03/15 06:28:38;;;;;;;26.08;11.30;;;;;;;1.49;100.00;101266.59;5001122;28;20054;-87
2023/03/15 06:31:10;;;;;;;27.67;13.43;;;;;;;1.63;100.00;101275.09;4998642;28;20515;-86
2023/03/15 06:33:36;;;;;;;25.63;12.88;;;;;;;1.63;100.00;101277.78;5034360;28;20030;-87
2023/03/15 06:36:02;;;;;;;25.83;14.32;;;;;;;1.69;100.00;101283.91;5022578;28;20036;-87
2023/03/15 06:38:30;;;;;;;27.73;12.90;;;;;;;1.74;100.00;101274.72;5021932;28;20047;-86
2023/03/15 06:40:57;;;;;;;25.58;13.65;;;;;;;1.61;100.00;101266.19;5038932;28;20044;-86
2023/03/15 06:43:23;;;;;;;25.42;13.27;;;;;;;1.73;100.00;101278.34;5019471;28;20041;-87
2023/03/15 06:45:49;;;;;;;23.90;13.45;;;;;;;1.78;100.00;101270.97;5021021;28;20036;-87
2023/03/15 06:48:15;;;;;;;24.45;13.95;;;;;;;2.05;100.00;101308.72;5019310;28;20083;-87
2023/03/15 06:50:40;;;;;;;30.83;14.82;;;;;;;2.14;100.00;101319.16;4998828;28;20043;-87
2023/03/15 06:53:06;;;;;;;22.65;12.90;;;;;;;2.27;100.00;101316.91;5006872;28;20021;-87
2023/03/15 06:55:31;;;;;;;25.73;13.52;;;;;;;2.34;100.00;101318.44;5030531;28;20380;-87
2023/03/15 06:57:57;;;;;;;28.48;14.25;;;;;;;2.22;100.00;101291.88;5019056;28;20059;-86
2023/03/15 07:00:23;;;;;;;24.85;13.77;;;;;;;2.48;100.00;101322.47;5026204;28;20040;-86
2023/03/15 07:02:48;;;;;;;27.65;14.73;;;;;;;2.21;100.00;101300.91;5014914;28;20047;-85
2023/03/15 07:05:14;;;;;;;25.63;13.73;;;;;;;2.53;100.00;101328.56;5033326;28;20188;-87
2023/03/15 07:07:39;;;;;;;28.23;14.18;;;;;;;2.46;100.00;101318.91;5027292;28;20036;-82
2023/03/15 07:10:05;;;;;;;25.40;13.98;;;;;;;2.44;100.00;101318.09;5009243;28;20044;-86
2023/03/15 07:12:31;;;;;;;24.70;13.38;;;;;;;2.55;100.00;101338.34;5024203;28;20036;-87
2023/03/15 07:14:56;;;;;;;22.20;12.85;;;;;;;2.73;100.00;101331.38;4991607;28;20029;-86
2023/03/15 07:17:22;;;;;;;24.98;13.52;;;;;;;2.75;100.00;101331.31;5042276;28;20045;-85
2023/03/15 07:19:47;;;;;;;25.77;13.18;;;;;;;2.74;100.00;101332.28;5038798;28;20033;-89
2023/03/15 07:22:13;;;;;;;21.95;12.90;;;;;;;2.79;100.00;101351.91;5051641;28;20045;-87
2023/03/15 07:24:38;;;;;;;24.65;14.65;;;;;;;3.07;100.00;101351.69;5046914;28;20025;-86
2023/03/15 07:27:04;;;;;;;25.80;13.65;;;;;;;3.18;100.00;101369.31;5016665;28;20117;-89
2023/03/15 07:29:29;;;;;;;27.65;14.07;;;;;;;3.31;100.00;101370.56;5040255;28;20124;-87
2023/03/15 07:31:55;;;;;;;25.20;14.00;;;;;;;3.48;100.00;101351.81;5029132;28;20499;-86
2023/03/15 07:34:20;;;;;;;21.65;13.43;;;;;;;3.77;100.00;101371.38;5037851;28;20093;-87
2023/03/15 07:36:46;;;;;;;24.13;13.30;;;;;;;3.95;100.00;101355.28;5028632;28;20071;-88
2023/03/15 07:39:11;;;;;;;23.80;12.40;;;;;;;3.92;100.00;101368.94;5031105;28;20091;-85
2023/03/15 07:41:37;;;;;;;20.15;11.95;;;;;;;4.16;100.00;101383.25;5041193;28;20385;-88
2023/03/15 07:44:03;;;;;;;24.52;12.73;;;;;;;4.09;100.00;101393.50;5031073;28;20025;-88
2023/03/15 07:46:28;;;;;;;23.42;12.57;;;;;;;4.07;100.00;101392.69;5047813;28;20040;-88
2023/03/15 07:48:54;;;;;;;23.77;12.00;;;;;;;3.89;100.00;101390.75;5006922;28;20120;-87
2023/03/15 07:51:19;;;;;;;20.42;11.43;;;;;;;3.76;100.00;101382.28;5036370;28;20037;-84
2023/03/15 07:53:45;;;;;;;18.52;11.55;;;;;;;3.91;100.00;101406.00;5036592;28;20104;-84
2023/03/15 07:56:10;;;;;;;19.05;11.23;;;;;;;3.78;100.00;101411.03;5038684;28;20037;-84
2023/03/15 07:58:36;;;;;;;16.83;11.43;;;;;;;3.74;100.00;101424.78;5023605;28;20036;-84
2023/03/15 08:01:01;;;;;;;25.88;12.55;;;;;;;3.90;100.00;101431.31;5022607;28;20087;-84
2023/03/15 08:03:27;;;;;;;24.95;13.73;;;;;;;4.16;100.00;101424.78;5037831;28;20083;-84
2023/03/15 08:05:52;;;;;;;28.75;13.88;;;;;;;4.28;100.00;101423.41;5038969;28;20033;-85
2023/03/15 08:08:18;;;;;;;21.98;12.05;;;;;;;4.54;100.00;101429.47;5039415;28;20361;-84
2023/03/15 08:10:44;;;;;;;21.02;12.95;;;;;;;4.79;100.00;101435.56;5022653;28;20044;-84
2023/03/15 08:13:10;;;;;;;22.65;12.00;;;;;;;4.91;100.00;101430.53;5038800;28;20500;-84
2023/03/15 08:15:36;;;;;;;22.80;11.63;;;;;;;4.95;100.00;101438.47;5021573;28;20195;-83
2023/03/15 08:18:02;;;;;;;18.50;10.18;;;;;;;5.24;100.00;101438.91;5022943;28;20065;-84
2023/03/15 08:20:27;;;;;;;16.42;8.95;;;;;;;5.30;100.00;101456.75;5039545;28;20036;-84
2023/03/15 08:22:53;;;;;;;21.20;9.95;;;;;;;5.43;100.00;101447.06;5034111;28;20168;-84
2023/03/15 08:25:23;;;;;;;16.63;9.35;;;;;;;5.59;100.00;101460.78;5017688;28;20037;-84
2023/03/15 08:27:49;;;;;;;17.90;8.38;;;;;;;5.88;100.00;101453.03;5042591;28;20405;-84
2023/03/15 08:30:16;;;;;;;11.35;8.20;;;;;;;6.04;100.00;101459.50;5037683;28;20057;-84
2023/03/15 08:32:44;;;;;;;12.23;7.20;;;;;;;6.18;100.00;101461.53;5021857;28;20491;-84
2023/03/15 08:35:11;;;;;;;12.38;7.32;;;;;;;6.38;100.00;101465.94;5038778;28;20028;-84
2023/03/15 08:37:38;;;;;;;18.80;8.18;;;;;;;6.62;100.00;101471.03;5039515;28;20025;-83
2023/03/15 08:40:08;;;;;;;11.85;7.18;;;;;;;7.05;100.00;101476.94;5021811;28;20071;-84
2023/03/15 08:42:35;;;;;;;17.33;7.15;;;;;;;7.08;100.00;101492.19;5038193;28;20052;-84
2023/03/15 08:45:03;;;;;;;19.80;7.40;;;;;;;6.77;100.00;101486.56;5021402;28;20095;-84
2023/03/15 08:47:29;;;;;;;12.45;5.80;;;;;;;6.63;100.00;101495.44;5038741;28;20029;-83
2023/03/15 08:49:54;;;;;;;12.05;6.60;;;;;;;6.41;100.00;101500.22;5021609;28;20403;-84
2023/03/15 08:52:20;;;;;;;8.95;5.45;;;;;;;6.29;100.00;101496.31;5034490;28;20038;-84
2023/03/15 08:54:46;;;;;;;12.55;5.95;;;;;;;6.88;100.00;101499.59;5001373;28;20045;-84
2023/03/15 08:57:11;;;;;;;15.00;6.47;;;;;;;6.90;100.00;101507.69;5017921;28;20033;-84
2023/03/15 08:59:38;;;;;;;13.90;6.75;;;;;;;6.61;100.00;101507.38;4985114;28;20095;-83
2023/03/15 09:02:03;;;;;;;11.98;5.47;;;;;;;6.77;100.00;101508.34;5027976;28;20105;-84
2023/03/15 09:04:29;;;;;;;14.32;5.43;;;;;;;6.11;100.00;101505.41;5046496;28;20555;-85
2023/03/15 09:06:55;;;;;;;21.08;6.47;;;;;;;5.80;100.00;101499.59;5044589;28;20033;-85
2023/03/15 09:09:21;;;;;;;19.70;7.88;;;;;;;5.97;100.00;101514.22;5022777;28;20080;-84
2023/03/15 09:11:46;;;;;;;11.77;6.60;;;;;;;7.30;100.00;101511.00;5020914;28;20081;-83
2023/03/15 09:14:11;;;;;;;11.23;6.28;;;;;;;7.90;100.00;101516.69;5036510;28;20033;-84
2023/03/15 09:16:37;;;;;;;11.68;5.80;;;;;;;7.06;100.00;101526.81;5004038;28;20071;-84
2023/03/15 09:19:02;;;;;;;14.45;5.22;;;;;;;6.16;100.00;101508.75;5031507;28;20029;-83
2023/03/15 09:21:28;;;;;;;17.20;6.15;;;;;;;5.99;100.00;101525.94;5022022;28;20083;-83
2023/03/15 09:23:53;;;;;;;17.63;5.80;;;;;;;5.76;100.00;101513.44;5051563;28;20469;-83
2023/03/15 09:26:19;;;;;;;10.90;5.50;;;;;;;6.10;100.00;101519.94;5003359;28;20087;-83
2023/03/15 09:28:44;;;;;;;11.00;5.20;;;;;;;6.44;100.00;101520.03;5018874;28;20065;-83
2023/03/15 09:31:10;;;;;;;11.70;4.40;;;;;;;5.99;100.00;101524.06;5019296;28;20503;-82
2023/03/15 09:33:36;;;;;;;13.23;5.28;;;;;;;6.35;100.00;101523.19;5018971;28;20030;-83
2023/03/15 09:36:01;;;;;;;7.32;3.42;;;;;;;7.48;100.00;101520.84;4991671;28;20030;-83
2023/03/15 09:38:27;;;;;;;9.80;3.10;;;;;;;7.70;100.00;101527.81;5055788;28;20045;-83
2023/03/15 09:41:00;;;;;;;10.55;2.10;;;;;;;8.02;100.00;101528.72;5038791;28;20404;-83
2023/03/15 09:44:01;;;;;;;8.77;2.80;;;;;;;8.32;100.00;101529.75;5038274;28;20062;-84
2023/03/15 09:46:34;;;;;;;11.55;2.80;;;;;;;8.26;100.00;101523.69;5038273;28;20052;-83
2023/03/15 09:49:13;;;;;;;12.13;2.35;;;;;;;8.53;100.00;101530.38;5022106;28;20025;-83
2023/03/15 09:51:46;;;;;;;8.73;2.60;;;;;;;8.59;100.00;101528.16;5055796;28;20048;-84
2023/03/15 09:54:17;;;;;;;5.28;2.20;;;;;;;8.70;100.00;101529.34;5037665;28;20028;-84
2023/03/15 09:56:53;;;;;;;11.18;1.80;;;;;;;8.69;100.00;101525.75;5002295;28;20506;-84
2023/03/15 09:59:29;;;;;;;8.07;2.22;;;;;;;8.57;100.00;101532.81;5036324;28;20033;-84
2023/03/15 10:01:56;;;;;;;9.68;1.42;;;;;;;8.82;100.00;101526.75;5035719;28;20034;-84
2023/03/15 10:04:39;;;;;;;7.10;2.15;;;;;;;9.08;100.00;101526.13;5038674;28;20400;-84
2023/03/15 10:07:10;;;;;;;11.80;2.03;;;;;;;9.21;100.00;101532.56;5022637;28;20033;-84
2023/03/15 10:09:36;;;;;;;12.43;1.60;;;;;;;8.88;100.00;101530.09;5037953;28;20037;-83
2023/03/15 10:12:11;;;;;;;10.07;2.03;;;;;;;9.36;100.00;101539.81;5022305;28;20020;-84
2023/03/15 10:14:43;;;;;;;10.63;1.92;;;;;;;9.79;100.00;101532.56;5021276;28;20493;-84
2023/03/15 10:17:17;;;;;;;6.22;1.38;;;;;;;9.71;100.00;101538.56;5037546;28;20101;-84
2023/03/15 10:19:57;;;;;;;6.20;1.17;;;;;;;9.73;87.26;101542.06;5055671;28;20108;-84
2023/03/15 10:23:02;;;;;;;8.60;1.10;;;;;;;9.65;79.87;101536.19;5033824;28;20116;-84
2023/03/15 10:25:29;;;;;;;5.82;1.00;;;;;;;9.73;84.93;101548.41;5014588;28;20057;-84
2023/03/15 10:28:14;;;;;;;7.65;1.17;;;;;;;10.18;95.93;101530.91;5047651;28;20409;-84
2023/03/15 10:30:46;;;;;;;12.60;2.05;;;;;;;10.16;100.00;101533.75;5034747;28;20480;-84
2023/03/15 10:33:18;;;;;;;6.13;1.92;;;;;;;9.33;94.69;101531.81;5033994;28;20040;-84
2023/03/15 10:35:43;;;;;;;5.75;1.92;;;;;;;9.31;100.00;101530.13;5034013;28;20044;-84
2023/03/15 10:38:17;;;;;;;5.10;1.73;;;;;;;9.69;96.99;101535.00;5034644;28;20416;-84
2023/03/15 10:40:46;;;;;;;5.68;1.50;;;;;;;9.65;100.00;101541.66;5035014;28;20040;-84
2023/03/15 10:43:22;;;;;;;4.97;1.25;;;;;;;8.13;100.00;101538.13;5035321;28;20509;-84
2023/03/15 10:46:12;;;;;;;11.40;2.17;;;;;;;7.50;100.00;101543.44;5017697;28;20128;-83
2023/03/15 10:48:50;;;;;;;11.40;2.05;;;;;;;7.24;100.00;101519.50;5014244;28;20148;-83
2023/03/15 10:51:40;;;;;;;9.65;2.25;;;;;;;7.39;100.00;101545.88;5030559;28;20485;-83
2023/03/15 10:54:16;;;;;;;8.70;1.95;;;;;;;7.03;100.00;101548.75;5014395;28;20045;-83
2023/03/15 10:57:05;;;;;;;8.45;1.38;;;;;;;6.85;100.00;101561.47;5015002;28;20057;-83
2023/03/15 10:59:33;;;;;;;5.43;1.27;;;;;;;7.02;100.00;101561.50;5015118;28;20030;-82
2023/03/15 11:02:10;;;;;;;9.68;1.00;;;;;;;7.10;100.00;101574.69;5031851;28;20065;-83
2023/03/15 11:04:41;;;;;;;7.63;1.33;;;;;;;6.95;100.00;101576.38;5029418;28;20485;-82
2023/03/15 11:07:07;;;;;;;6.15;1.30;;;;;;;6.77;100.00;101540.09;5014940;28;20030;-82
2023/03/15 11:09:53;;;;;;;15.02;1.73;;;;;;;6.92;92.47;101587.41;5014556;28;20061;-83
2023/03/15 11:12:24;;;;;;;4.25;0.75;;;;;;;7.03;96.31;101595.91;5029957;28;20026;-83
2023/03/15 11:14:55;;;;;;;5.28;0.80;;;;;;;6.99;88.39;101588.88;5014996;28;20512;-83
2023/03/15 11:17:25;;;;;;;5.03;0.90;;;;;;;7.86;88.28;101580.53;5025492;28;20036;-83
2023/03/15 11:20:09;;;;;;;5.72;0.77;;;;;;;8.65;80.87;101578.75;5034697;28;20040;-83
2023/03/15 11:22:34;;;;;;;3.63;0.70;;;;;;;8.83;80.00;101591.31;5032379;28;20038;-84
2023/03/15 11:25:00;;;;;;;5.10;1.00;;;;;;;8.98;79.80;101589.50;5033332;28;20511;-83
2023/03/15 11:27:27;;;;;;;4.80;1.30;;;;;;;8.31;79.74;101599.78;5034626;28;20073;-83
2023/03/15 11:29:58;;;;;;;5.85;0.93;;;;;;;8.61;80.97;101597.19;5034615;28;20033;-84
2023/03/15 11:32:30;;;;;;;5.78;0.95;;;;;;;8.97;77.14;101606.00;5033516;28;20032;-84
2023/03/15 11:35:18;;;;;;;7.00;0.98;;;;;;;9.00;77.24;101609.44;5033059;28;20076;-84
2023/03/15 11:37:56;;;;;;;7.38;0.90;;;;;;;9.17;73.70;101602.94;5034425;28;20040;-84
2023/03/15 11:40:28;;;;;;;4.35;0.90;;;;;;;9.08;71.97;101597.16;5032883;28;20113;-83
2023/03/15 11:43:28;;;;;;;10.13;1.00;;;;;;;9.56;71.46;101604.16;5033075;28;20420;-83
2023/03/15 11:45:55;;;;;;;2.83;0.80;;;;;;;9.66;60.31;101596.25;5032643;28;20481;-84